Berlin Heights, Ohio
Current Conditions -  °F | °C
As of 6:53 PM on Saturday 25 Oct 2014 (Local Time) from KLPR Reporting Station
Light Rain Light Rain  
Wind Chill: 64°   Ceiling: Unl
Heat Index: 64°   Visibility: 10mi
Dew Point: 41°   Wind: 14mph
Humidity: 43%   Direction: 280°W
Pressure: 29.77"   Gusts: 24mph
Location:  41.33°N, 82.49°W
Report Text: KLPR 252253Z AUTO 28012G21KT 10SM -RA CLR 18/05 A2977 RMK AO2 SLP082 P0000 T01780050 TSNO
Loading
Personal Weather Stations






























Interactive Weather Map
Tropical Storm Tracking
New forecast layout! Learn more

10-Day Weather Forecast

Advertisements
Track Severe Weather on mobile